Time,TemperatureF,DewpointF,PressureIn,WindDirection,WindDirectionDegrees,WindSpeedMPH,WindSpeedGustMPH,Humidity,HourlyPrecipIn,Conditions,Clouds,dailyrainin,SoftwareType,DateUTC
2013-10-12 00:02:00,53.8,43.1,29.85,NW,316,2.3,2.3,67,0.00,,SKC,0.00,WeatherDisplay:10.37,2013-10-12 05:02:00,
2013-10-12 00:07:00,53.6,42.9,29.85,WNW,301,2.3,2.3,67,0.00,,SKC,0.00,WeatherDisplay:10.37,2013-10-12 05:07:00,
2013-10-12 00:12:00,53.2,42.9,29.85,WNW,302,1.1,0.0,68,0.00,,SKC,0.00,WeatherDisplay:10.37,2013-10-12 05:12:00,
2013-10-12 00:17:00,52.9,42.6,29.85,WNW,302,0.0,0.0,68,0.00,,SKC,0.00,WeatherDisplay:10.37,2013-10-12 05:17:00,
2013-10-12 00:22:00,52.4,42.9,29.85,WNW,301,0.0,0.0,70,0.00,,SKC,0.00,WeatherDisplay:10.37,2013-10-12 05:22:00,
2013-10-12 00:27:00,51.7,42.6,29.85,WNW,301,0.0,0.0,71,0.00,,SKC,0.00,WeatherDisplay:10.37,2013-10-12 05:27:00,
2013-10-12 00:32:00,51.3,42.2,29.85,WNW,301,0.0,0.0,71,0.00,,SKC,0.00,WeatherDisplay:10.37,2013-10-12 05:32:00,
2013-10-12 00:37:00,50.7,42.0,29.85,WNW,301,0.0,0.0,72,0.00,,SKC,0.00,WeatherDisplay:10.37,2013-10-12 05:37:00,
2013-10-12 00:42:00,50.3,42.3,29.85,NW,305,0.0,0.0,74,0.00,,SKC,0.00,WeatherDisplay:10.37,2013-10-12 05:42:00,
2013-10-12 00:47:00,50.1,42.1,29.85,NW,305,0.0,0.0,74,0.00,,SKC,0.00,WeatherDisplay:10.37,2013-10-12 05:47:00,
2013-10-12 00:52:00,49.6,42.0,29.85,NW,305,0.0,0.0,75,0.00,,SKC,0.00,WeatherDisplay:10.37,2013-10-12 05:52:00,
2013-10-12 00:57:00,49.1,41.9,29.85,NW,305,0.0,0.0,76,0.00,,SKC,0.00,WeatherDisplay:10.37,2013-10-12 05:57:00,
2013-10-12 01:02:00,48.6,41.7,29.85,NW,305,0.0,0.0,77,0.00,,SKC,0.00,WeatherDisplay:10.37,2013-10-12 06:02:00,
2013-10-12 01:07:00,48.2,41.7,29.86,NW,305,0.0,0.0,78,0.00,,SKC,0.00,WeatherDisplay:10.37,2013-10-12 06:07:00,
2013-10-12 01:12:00,47.6,41.4,29.86,NW,305,0.0,0.0,79,0.00,,SKC,0.00,WeatherDisplay:10.37,2013-10-12 06:12:00,
2013-10-12 01:17:00,47.1,41.6,29.86,NW,305,0.0,0.0,81,0.00,,SKC,0.00,WeatherDisplay:10.37,2013-10-12 06:17:00,
2013-10-12 01:22:00,47.1,41.9,29.86,NW,304,0.0,0.0,82,0.00,,SKC,0.00,WeatherDisplay:10.37,2013-10-12 06:22:00,
2013-10-12 01:27:00,47.9,42.0,29.86,WNW,297,2.3,2.3,80,0.00,,SKC,0.00,WeatherDisplay:10.37,2013-10-12 06:27:00,
2013-10-12 01:32:00,48.4,42.2,29.87,WNW,298,0.0,0.0,79,0.00,,SKC,0.00,WeatherDisplay:10.37,2013-10-12 06:32:00,
2013-10-12 01:37:00,48.6,42.0,29.87,NW,312,0.0,0.0,78,0.00,,SKC,0.00,WeatherDisplay:10.37,2013-10-12 06:37:00,
2013-10-12 01:42:00,48.8,42.2,29.87,NW,304,3.2,3.2,78,0.00,,SKC,0.00,WeatherDisplay:10.37,2013-10-12 06:42:00,
2013-10-12 01:47:00,49.3,42.4,29.88,NW,310,2.3,2.3,77,0.00,,SKC,0.00,WeatherDisplay:10.37,2013-10-12 06:47:00,
2013-10-12 01:52:00,49.3,42.4,29.88,NW,314,2.3,2.3,77,0.00,,SKC,0.00,WeatherDisplay:10.37,2013-10-12 06:52:00,
2013-10-12 01:57:00,49.2,42.3,29.89,NW,311,1.2,1.2,77,0.00,,SKC,0.00,WeatherDisplay:10.37,2013-10-12 06:57:00,
2013-10-12 02:02:00,48.9,42.0,29.89,NW,311,0.0,0.0,77,0.00,,SKC,0.00,WeatherDisplay:10.37,2013-10-12 07:02:00,
2013-10-12 02:07:00,48.6,41.7,29.89,NW,311,0.0,0.0,77,0.00,,SKC,0.00,WeatherDisplay:10.37,2013-10-12 07:07:00,
2013-10-12 02:12:00,47.9,41.4,29.89,NW,311,0.0,0.0,78,0.00,,SKC,0.00,WeatherDisplay:10.37,2013-10-12 07:12:00,
2013-10-12 02:17:00,47.1,41.2,29.90,NW,311,0.0,0.0,80,0.00,,SKC,0.00,WeatherDisplay:10.37,2013-10-12 07:17:00,
2013-10-12 02:22:00,46.6,41.1,29.90,NW,311,0.0,0.0,81,0.00,,SKC,0.00,WeatherDisplay:10.37,2013-10-12 07:22:00,
2013-10-12 02:27:00,46.0,40.8,29.91,NW,311,0.0,0.0,82,0.00,,SKC,0.00,WeatherDisplay:10.37,2013-10-12 07:27:00,
2013-10-12 02:32:00,45.3,40.4,29.91,NW,311,0.0,0.0,83,0.00,,SKC,0.00,WeatherDisplay:10.37,2013-10-12 07:32:00,
2013-10-12 02:37:00,44.8,40.3,29.91,NW,311,0.0,0.0,84,0.00,,SKC,0.00,WeatherDisplay:10.37,2013-10-12 07:37:00,
2013-10-12 02:42:00,44.3,40.4,29.91,NW,311,0.0,0.0,86,0.00,,SKC,0.00,WeatherDisplay:10.37,2013-10-12 07:42:00,
2013-10-12 02:47:00,44.1,40.5,29.92,NW,311,0.0,0.0,87,0.00,,SKC,0.00,WeatherDisplay:10.37,2013-10-12 07:47:00,
2013-10-12 02:52:00,44.0,40.4,29.92,NW,311,0.0,0.0,87,0.00,,SKC,0.00,WeatherDisplay:10.37,2013-10-12 07:52:00,
2013-10-12 02:57:00,44.1,40.8,29.92,NW,311,0.0,0.0,88,0.00,,SKC,0.00,WeatherDisplay:10.37,2013-10-12 07:57:00,
2013-10-12 03:02:00,44.0,41.0,29.92,NW,311,0.0,0.0,89,0.00,,SKC,0.00,WeatherDisplay:10.37,2013-10-12 08:02:00,
2013-10-12 03:07:00,44.0,40.7,29.92,NW,311,0.0,0.0,88,0.00,,SKC,0.00,WeatherDisplay:10.37,2013-10-12 08:07:00,
2013-10-12 03:12:00,43.7,40.4,29.92,NW,311,0.0,0.0,88,0.00,,SKC,0.00,WeatherDisplay:10.37,2013-10-12 08:12:00,
2013-10-12 03:17:00,43.4,40.4,29.92,NW,311,0.0,0.0,89,0.00,,SKC,0.00,WeatherDisplay:10.37,2013-10-12 08:17:00,
2013-10-12 03:22:00,43.5,40.8,29.92,NW,306,0.0,0.0,90,0.00,,SKC,0.00,WeatherDisplay:10.37,2013-10-12 08:22:00,
2013-10-12 03:27:00,43.4,40.4,29.92,NW,306,0.0,0.0,89,0.00,,SKC,0.00,WeatherDisplay:10.37,2013-10-12 08:27:00,
2013-10-12 03:33:00,43.1,40.1,29.92,NW,306,0.0,0.0,89,0.00,,SKC,0.00,WeatherDisplay:10.37,2013-10-12 08:33:00,
2013-10-12 03:38:00,42.8,39.8,29.92,NW,306,0.0,0.0,89,0.00,,SKC,0.00,WeatherDisplay:10.37,2013-10-12 08:38:00,
2013-10-12 03:43:00,42.9,40.5,29.93,NW,306,0.0,0.0,91,0.00,,SKC,0.00,WeatherDisplay:10.37,2013-10-12 08:43:00,
2013-10-12 03:48:00,44.2,41.2,29.92,NW,307,1.2,1.2,89,0.00,,SKC,0.00,WeatherDisplay:10.37,2013-10-12 08:48:00,
2013-10-12 03:53:00,45.3,41.4,29.92,NW,304,2.3,2.3,86,0.00,,SKC,0.00,WeatherDisplay:10.37,2013-10-12 08:53:00,
2013-10-12 03:58:00,45.8,41.5,29.93,WNW,302,2.3,2.3,85,0.00,,SKC,0.00,WeatherDisplay:10.37,2013-10-12 08:58:00,
2013-10-12 04:03:00,46.1,41.5,29.93,WNW,287,1.2,1.2,84,0.00,,SKC,0.00,WeatherDisplay:10.37,2013-10-12 09:03:00,
2013-10-12 04:08:00,46.3,41.4,29.93,WNW,296,2.3,2.3,83,0.00,,SKC,0.00,WeatherDisplay:10.37,2013-10-12 09:08:00,
2013-10-12 04:13:00,46.4,41.5,29.93,NW,304,4.2,4.2,83,0.00,,SKC,0.00,WeatherDisplay:10.37,2013-10-12 09:13:00,
2013-10-12 04:18:00,46.5,41.6,29.93,NW,308,4.6,4.6,83,0.00,,SKC,0.00,WeatherDisplay:10.37,2013-10-12 09:18:00,
2013-10-12 04:23:00,46.4,41.5,29.93,NW,307,2.3,2.3,83,0.00,,SKC,0.00,WeatherDisplay:10.37,2013-10-12 09:23:00,
2013-10-12 04:28:00,46.2,41.3,29.93,NW,309,4.6,4.6,83,0.00,,SKC,0.00,WeatherDisplay:10.37,2013-10-12 09:28:00,
2013-10-12 04:33:00,46.0,41.1,29.93,NW,315,0.0,0.0,83,0.00,,SKC,0.00,WeatherDisplay:10.37,2013-10-12 09:33:00,
2013-10-12 04:38:00,45.8,41.2,29.94,NW,315,0.0,0.0,84,0.00,,SKC,0.00,WeatherDisplay:10.37,2013-10-12 09:38:00,
2013-10-12 04:43:00,45.4,40.8,29.94,WNW,287,1.2,1.2,84,0.00,,SKC,0.00,WeatherDisplay:10.37,2013-10-12 09:43:00,
2013-10-12 04:48:00,45.3,41.1,29.95,WNW,284,1.2,0.0,85,0.00,,SKC,0.00,WeatherDisplay:10.37,2013-10-12 09:48:00,
2013-10-12 04:53:00,45.3,41.1,29.95,WNW,297,1.2,1.2,85,0.00,,SKC,0.00,WeatherDisplay:10.37,2013-10-12 09:53:00,
2013-10-12 04:58:00,45.3,41.1,29.95,WNW,296,1.2,1.2,85,0.00,,SKC,0.00,WeatherDisplay:10.37,2013-10-12 09:58:00,
2013-10-12 05:03:00,45.1,40.9,29.95,WNW,296,1.2,1.2,85,0.00,,SKC,0.00,WeatherDisplay:10.37,2013-10-12 10:03:00,
2013-10-12 05:08:00,45.0,40.8,29.95,WNW,298,1.2,1.2,85,0.00,,SKC,0.00,WeatherDisplay:10.37,2013-10-12 10:08:00,
2013-10-12 05:13:00,45.1,40.6,29.95,NW,304,1.2,0.0,84,0.00,,SKC,0.00,WeatherDisplay:10.37,2013-10-12 10:13:00,
2013-10-12 05:18:00,45.2,40.7,29.95,NW,317,2.3,2.3,84,0.00,,SKC,0.00,WeatherDisplay:10.37,2013-10-12 10:18:00,
2013-10-12 05:23:00,45.3,40.7,29.95,NNW,328,1.2,1.2,84,0.00,,SKC,0.00,WeatherDisplay:10.37,2013-10-12 10:23:00,
2013-10-12 05:28:00,45.1,40.2,29.96,NW,321,1.1,1.1,83,0.00,,SKC,0.00,WeatherDisplay:10.37,2013-10-12 10:28:00,
2013-10-12 05:33:00,44.9,40.4,29.96,NW,321,0.0,0.0,84,0.00,,SKC,0.00,WeatherDisplay:10.37,2013-10-12 10:33:00,
2013-10-12 05:38:00,44.5,39.7,29.97,NW,321,0.0,0.0,83,0.00,,SKC,0.00,WeatherDisplay:10.37,2013-10-12 10:38:00,
2013-10-12 05:43:00,43.9,39.7,29.97,NW,321,0.0,0.0,85,0.00,,SKC,0.00,WeatherDisplay:10.37,2013-10-12 10:43:00,
2013-10-12 05:48:00,43.5,39.6,29.98,NW,321,0.0,0.0,86,0.00,,SKC,0.00,WeatherDisplay:10.37,2013-10-12 10:48:00,
2013-10-12 05:53:00,43.0,39.4,29.98,NW,321,0.0,0.0,87,0.00,,SKC,0.00,WeatherDisplay:10.37,2013-10-12 10:53:00,
2013-10-12 05:58:00,42.7,39.1,29.99,NW,321,0.0,0.0,87,0.00,,SKC,0.00,WeatherDisplay:10.37,2013-10-12 10:58:00,
2013-10-12 06:03:00,42.3,39.0,29.99,NW,321,0.0,0.0,88,0.00,,SKC,0.00,WeatherDisplay:10.37,2013-10-12 11:03:00,
2013-10-12 06:08:00,41.8,38.2,30.00,NW,321,0.0,0.0,87,0.00,,SKC,0.00,WeatherDisplay:10.37,2013-10-12 11:08:00,
2013-10-12 06:13:00,41.1,38.1,30.00,NW,321,0.0,0.0,89,0.00,,SKC,0.00,WeatherDisplay:10.37,2013-10-12 11:13:00,
2013-10-12 06:18:00,40.8,37.8,30.00,NW,321,0.0,0.0,89,0.00,,SKC,0.00,WeatherDisplay:10.37,2013-10-12 11:18:00,
2013-10-12 06:23:00,40.9,38.5,30.00,NW,322,0.0,0.0,91,0.00,,SKC,0.00,WeatherDisplay:10.37,2013-10-12 11:23:00,
2013-10-12 06:28:00,40.8,38.1,30.00,NW,322,0.0,0.0,90,0.00,,SKC,0.00,WeatherDisplay:10.37,2013-10-12 11:28:00,
2013-10-12 06:33:00,40.5,37.8,30.01,NW,321,0.0,0.0,90,0.00,,SKC,0.00,WeatherDisplay:10.37,2013-10-12 11:33:00,
2013-10-12 06:38:00,40.4,38.0,30.01,NW,321,0.0,0.0,91,0.00,,SKC,0.00,WeatherDisplay:10.37,2013-10-12 11:38:00,
2013-10-12 06:43:00,40.4,38.3,30.01,NW,321,0.0,0.0,92,0.00,,SKC,0.00,WeatherDisplay:10.37,2013-10-12 11:43:00,
2013-10-12 06:48:00,40.6,38.5,30.01,NW,321,0.0,0.0,92,0.00,,SKC,0.00,WeatherDisplay:10.37,2013-10-12 11:48:00,
2013-10-12 06:53:00,40.4,38.0,30.01,NW,321,0.0,0.0,91,0.00,,SKC,0.00,WeatherDisplay:10.37,2013-10-12 11:53:00,
2013-10-12 06:58:00,40.1,37.7,30.01,NW,321,0.0,0.0,91,0.00,,SKC,0.00,WeatherDisplay:10.37,2013-10-12 11:58:00,
2013-10-12 07:03:00,39.7,37.6,30.01,NW,322,0.0,0.0,92,0.00,CLR,SKC,0.00,WeatherDisplay:10.37,2013-10-12 12:03:00,
2013-10-12 07:08:00,39.3,37.2,30.01,NW,321,0.0,0.0,92,0.00,CLR,SKC,0.00,WeatherDisplay:10.37,2013-10-12 12:08:00,
2013-10-12 07:13:00,39.5,37.6,30.01,NW,321,0.0,0.0,93,0.00,CLR,SKC,0.00,WeatherDisplay:10.37,2013-10-12 12:13:00,
2013-10-12 07:18:00,39.5,37.4,30.01,NW,321,0.0,0.0,92,0.00,CLR,SKC,0.00,WeatherDisplay:10.37,2013-10-12 12:18:00,
2013-10-12 07:23:00,39.3,37.2,30.01,NW,321,0.0,0.0,92,0.00,CLR,SKC,0.00,WeatherDisplay:10.37,2013-10-12 12:23:00,
2013-10-12 07:28:00,39.3,37.4,30.02,NW,322,0.0,0.0,93,0.00,CLR,SKC,0.00,WeatherDisplay:10.37,2013-10-12 12:28:00,
2013-10-12 07:33:00,40.1,38.2,30.02,NW,321,0.0,0.0,93,0.00,CLR,SKC,0.00,WeatherDisplay:10.37,2013-10-12 12:33:00,
2013-10-12 07:38:00,40.1,38.0,30.02,NW,321,0.0,0.0,92,0.00,CLR,SKC,0.00,WeatherDisplay:10.37,2013-10-12 12:38:00,
2013-10-12 07:43:00,39.9,37.5,30.02,NW,321,0.0,0.0,91,0.00,CLR,SKC,0.00,WeatherDisplay:10.37,2013-10-12 12:43:00,
2013-10-12 07:48:00,39.5,37.1,30.03,NW,321,0.0,0.0,91,0.00,CLR,SKC,0.00,WeatherDisplay:10.37,2013-10-12 12:48:00,
2013-10-12 07:53:00,40.0,37.9,30.03,NW,321,0.0,0.0,92,0.00,CLR,SKC,0.00,WeatherDisplay:10.37,2013-10-12 12:53:00,
2013-10-12 07:58:00,40.6,38.2,30.03,NW,321,0.0,0.0,91,0.00,CLR,SKC,0.00,WeatherDisplay:10.37,2013-10-12 12:58:00,
2013-10-12 08:03:00,41.2,38.5,30.04,NW,321,0.0,0.0,90,0.00,CLR,SKC,0.00,WeatherDisplay:10.37,2013-10-12 13:03:00,
2013-10-12 08:08:00,41.8,38.8,30.04,NW,321,0.0,0.0,89,0.00,CLR,SKC,0.00,WeatherDisplay:10.37,2013-10-12 13:08:00,
2013-10-12 08:13:00,42.4,39.1,30.05,NW,321,0.0,0.0,88,0.00,CLR,SKC,0.00,WeatherDisplay:10.37,2013-10-12 13:13:00,
2013-10-12 08:18:00,43.4,39.5,30.05,NW,321,0.0,0.0,86,0.00,CLR,SKC,0.00,WeatherDisplay:10.37,2013-10-12 13:18:00,
2013-10-12 08:23:00,44.3,39.8,30.05,NW,321,1.2,1.2,84,0.00,CLR,SKC,0.00,WeatherDisplay:10.37,2013-10-12 13:23:00,
2013-10-12 08:28:00,45.0,40.1,30.06,WNW,300,1.2,1.2,83,0.00,CLR,SKC,0.00,WeatherDisplay:10.37,2013-10-12 13:28:00,
2013-10-12 08:33:00,45.5,40.6,30.06,NW,311,1.2,1.2,83,0.00,CLR,SKC,0.00,WeatherDisplay:10.37,2013-10-12 13:33:00,
2013-10-12 08:38:00,46.0,40.5,30.06,WNW,300,3.5,3.5,81,0.00,CLR,SKC,0.00,WeatherDisplay:10.37,2013-10-12 13:38:00,
2013-10-12 08:43:00,46.6,41.1,30.07,NW,308,2.3,2.3,81,0.00,CLR,SKC,0.00,WeatherDisplay:10.37,2013-10-12 13:43:00,
2013-10-12 08:48:00,47.1,41.2,30.07,NW,309,2.3,2.3,80,0.00,CLR,SKC,0.00,WeatherDisplay:10.37,2013-10-12 13:48:00,
2013-10-12 08:53:00,47.5,41.3,30.07,West,280,3.5,3.5,79,0.00,CLR,SKC,0.00,WeatherDisplay:10.37,2013-10-12 13:53:00,
2013-10-12 08:58:00,48.0,41.8,30.08,WNW,300,3.5,3.5,79,0.00,CLR,SKC,0.00,WeatherDisplay:10.37,2013-10-12 13:58:00,
2013-10-12 09:03:00,48.5,42.0,30.08,WNW,293,3.5,3.5,78,0.00,CLR,SKC,0.00,WeatherDisplay:10.37,2013-10-12 14:03:00,
2013-10-12 09:08:00,48.9,42.0,30.08,NW,310,3.5,3.5,77,0.00,CLR,SKC,0.00,WeatherDisplay:10.37,2013-10-12 14:08:00,
2013-10-12 09:13:00,49.4,42.1,30.08,WNW,290,3.5,3.5,76,0.00,CLR,SKC,0.00,WeatherDisplay:10.37,2013-10-12 14:13:00,
2013-10-12 09:19:00,49.9,41.9,30.09,WNW,300,4.6,4.6,74,0.00,CLR,SKC,0.00,WeatherDisplay:10.37,2013-10-12 14:19:00,
2013-10-12 09:24:00,50.4,42.8,30.09,NW,316,5.3,5.3,75,0.00,CLR,SKC,0.00,WeatherDisplay:10.37,2013-10-12 14:24:00,
2013-10-12 09:29:00,50.6,41.9,30.09,NW,318,6.9,6.9,72,0.00,CLR,SKC,0.00,WeatherDisplay:10.37,2013-10-12 14:29:00,
2013-10-12 09:34:00,50.9,42.6,30.09,NW,308,6.9,6.9,73,0.00,CLR,SKC,0.00,WeatherDisplay:10.37,2013-10-12 14:34:00,
2013-10-12 09:39:00,51.6,42.1,30.09,NW,313,4.6,4.6,70,0.00,CLR,SKC,0.00,WeatherDisplay:10.37,2013-10-12 14:39:00,
2013-10-12 09:44:00,52.5,42.6,30.10,West,279,3.5,3.5,69,0.00,CLR,SKC,0.00,WeatherDisplay:10.37,2013-10-12 14:44:00,
2013-10-12 09:49:00,53.3,41.0,30.10,WNW,300,9.5,9.5,63,0.00,CLR,SKC,0.00,WeatherDisplay:10.37,2013-10-12 14:49:00,
2013-10-12 09:54:00,54.0,41.7,30.10,WNW,294,4.6,4.6,63,0.00,CLR,SKC,0.00,WeatherDisplay:10.37,2013-10-12 14:54:00,
2013-10-12 09:59:00,54.5,41.7,30.10,WNW,295,7.4,7.4,62,0.00,CLR,SKC,0.00,WeatherDisplay:10.37,2013-10-12 14:59:00,
2013-10-12 11:15:00,56.7,38.3,30.10,NW,308,7.0,11.0,50,0.00,CLR,SKC,0.00,WeatherDisplay:10.37,2013-10-12 16:15:00,
2013-10-12 11:30:00,57.3,37.8,30.11,NW,308,6.0,12.0,48,0.00,CLR,SKC,0.00,WeatherDisplay:10.37,2013-10-12 16:30:00,
2013-10-12 11:45:00,58.0,36.2,30.11,NW,311,7.0,14.0,44,0.00,CLR,SKC,0.00,WeatherDisplay:10.37,2013-10-12 16:45:00,
2013-10-12 11:54:00,60.5,36.0,30.11,NW,324,9.2,9.2,40,0.00,CLR,SKC,0.00,WeatherDisplay:10.37,2013-10-12 16:54:00,
2013-10-12 11:59:00,60.8,36.9,30.12,WNW,297,6.4,6.4,41,0.00,CLR,SKC,0.00,WeatherDisplay:10.37,2013-10-12 16:59:00,
2013-10-12 12:05:00,61.2,36.0,30.12,WNW,290,10.6,10.6,39,0.00,,SKC,0.00,WeatherDisplay:10.37,2013-10-12 17:05:00,
2013-10-12 12:10:00,61.1,35.3,30.12,WNW,291,4.6,4.6,38,0.00,,SKC,0.00,WeatherDisplay:10.37,2013-10-12 17:10:00,
2013-10-12 12:15:00,61.4,34.9,30.12,North,349,10.6,10.6,37,0.00,,SKC,0.00,WeatherDisplay:10.37,2013-10-12 17:15:00,
2013-10-12 12:20:00,61.6,35.1,30.12,NW,320,8.5,8.5,37,0.00,,SKC,0.00,WeatherDisplay:10.37,2013-10-12 17:20:00,
2013-10-12 12:25:00,62.1,34.1,30.12,WNW,301,11.7,11.7,35,0.00,,SKC,0.00,WeatherDisplay:10.37,2013-10-12 17:25:00,
2013-10-12 12:30:00,62.2,34.2,30.12,NNW,335,8.1,8.1,35,0.00,,SKC,0.00,WeatherDisplay:10.37,2013-10-12 17:30:00,
2013-10-12 12:35:00,62.2,33.5,30.12,NW,304,9.2,9.2,34,0.00,,SKC,0.00,WeatherDisplay:10.37,2013-10-12 17:35:00,
2013-10-12 12:41:00,62.5,35.9,30.12,NNW,329,14.8,14.8,37,0.00,,SKC,0.00,WeatherDisplay:10.37,2013-10-12 17:41:00,
2013-10-12 12:46:00,63.0,34.9,30.12,NW,306,8.5,8.5,35,0.00,,SKC,0.00,WeatherDisplay:10.37,2013-10-12 17:46:00,
2013-10-12 12:51:00,63.1,35.0,30.12,WNW,282,8.1,8.1,35,0.00,,SKC,0.00,WeatherDisplay:10.37,2013-10-12 17:51:00,
2013-10-12 12:56:00,63.2,32.8,30.12,NW,306,12.7,12.7,32,0.00,,SKC,0.00,WeatherDisplay:10.37,2013-10-12 17:56:00,
2013-10-12 13:01:00,62.8,32.5,30.12,NW,324,6.9,6.9,32,0.00,,SKC,0.00,WeatherDisplay:10.37,2013-10-12 18:01:00,
2013-10-12 13:06:00,63.3,33.7,30.12,NW,324,8.5,8.5,33,0.00,,SKC,0.00,WeatherDisplay:10.37,2013-10-12 18:06:00,
2013-10-12 13:11:00,63.4,33.0,30.11,WNW,295,8.5,8.5,32,0.00,,SKC,0.00,WeatherDisplay:10.37,2013-10-12 18:11:00,
2013-10-12 13:16:00,63.6,33.9,30.11,WNW,301,10.6,10.6,33,0.00,,SKC,0.00,WeatherDisplay:10.37,2013-10-12 18:16:00,
2013-10-12 13:21:00,64.2,34.5,30.11,NW,309,12.7,12.7,33,0.00,,SKC,0.00,WeatherDisplay:10.37,2013-10-12 18:21:00,
2013-10-12 13:26:00,64.1,34.4,30.11,NW,323,8.5,8.5,33,0.00,,SKC,0.00,WeatherDisplay:10.37,2013-10-12 18:26:00,
2013-10-12 13:31:00,64.2,33.7,30.11,WNW,297,16.1,16.1,32,0.00,,SKC,0.00,WeatherDisplay:10.37,2013-10-12 18:31:00,
2013-10-12 13:36:00,63.9,35.0,30.11,WNW,300,10.4,10.4,34,0.00,,SKC,0.00,WeatherDisplay:10.37,2013-10-12 18:36:00,
2013-10-12 13:41:00,64.0,33.5,30.10,NW,321,6.9,6.9,32,0.00,,SKC,0.00,WeatherDisplay:10.37,2013-10-12 18:41:00,
2013-10-12 13:46:00,64.4,33.9,30.10,WNW,298,11.7,11.7,32,0.00,,SKC,0.00,WeatherDisplay:10.37,2013-10-12 18:46:00,
2013-10-12 13:51:00,64.6,34.1,30.11,WNW,302,9.2,9.2,32,0.00,,SKC,0.00,WeatherDisplay:10.37,2013-10-12 18:51:00,
2013-10-12 13:56:00,64.7,34.9,30.10,West,276,12.7,12.7,33,0.00,,SKC,0.00,WeatherDisplay:10.37,2013-10-12 18:56:00,
2013-10-12 14:01:00,64.6,35.6,30.10,NW,319,9.5,9.5,34,0.00,,SKC,0.00,WeatherDisplay:10.37,2013-10-12 19:01:00,
2013-10-12 14:06:00,64.9,35.8,30.10,WNW,302,9.2,9.2,34,0.00,,SKC,0.00,WeatherDisplay:10.37,2013-10-12 19:06:00,
2013-10-12 14:11:00,64.9,35.1,30.10,NNW,328,12.7,12.7,33,0.00,,SKC,0.00,WeatherDisplay:10.37,2013-10-12 19:11:00,
2013-10-12 14:16:00,64.9,34.3,30.10,WSW,258,8.5,8.5,32,0.00,,SKC,0.00,WeatherDisplay:10.37,2013-10-12 19:16:00,
2013-10-12 14:21:00,65.3,33.9,30.10,NW,304,9.5,9.5,31,0.00,,SKC,0.00,WeatherDisplay:10.37,2013-10-12 19:21:00,
2013-10-12 14:26:00,65.2,33.0,30.10,WNW,299,8.5,8.5,30,0.00,,SKC,0.00,WeatherDisplay:10.37,2013-10-12 19:26:00,
2013-10-12 14:31:00,65.0,32.8,30.10,WNW,303,7.4,7.4,30,0.00,,SKC,0.00,WeatherDisplay:10.37,2013-10-12 19:31:00,
2013-10-12 14:36:00,65.3,33.9,30.10,NW,309,6.9,6.9,31,0.00,,SKC,0.00,WeatherDisplay:10.37,2013-10-12 19:36:00,
2013-10-12 14:41:00,65.3,34.7,30.10,NNE,26,6.9,6.9,32,0.00,,SKC,0.00,WeatherDisplay:10.37,2013-10-12 19:41:00,
2013-10-12 14:46:00,65.5,34.8,30.10,West,264,4.6,4.6,32,0.00,,SKC,0.00,WeatherDisplay:10.37,2013-10-12 19:46:00,
2013-10-12 14:51:00,65.6,33.3,30.09,NW,311,10.6,10.6,30,0.00,,SKC,0.00,WeatherDisplay:10.37,2013-10-12 19:51:00,
2013-10-12 14:56:00,65.8,32.6,30.09,NW,317,10.4,10.4,29,0.00,,SKC,0.00,WeatherDisplay:10.37,2013-10-12 19:56:00,
2013-10-12 15:01:00,66.0,32.8,30.09,NNW,330,7.4,7.4,29,0.00,CLR,SKC,0.00,WeatherDisplay:10.37,2013-10-12 20:01:00,
2013-10-12 15:06:00,66.2,33.0,30.10,NW,309,6.4,6.4,29,0.00,CLR,SKC,0.00,WeatherDisplay:10.37,2013-10-12 20:06:00,
2013-10-12 15:11:00,66.4,33.2,30.10,NW,309,8.5,8.5,29,0.00,CLR,SKC,0.00,WeatherDisplay:10.37,2013-10-12 20:11:00,
2013-10-12 15:16:00,66.6,33.3,30.10,West,281,7.4,7.4,29,0.00,CLR,SKC,0.00,WeatherDisplay:10.37,2013-10-12 20:16:00,
2013-10-12 15:21:00,66.4,34.8,30.10,WNW,296,5.8,5.8,31,0.00,CLR,SKC,0.00,WeatherDisplay:10.37,2013-10-12 20:21:00,
2013-10-12 15:27:00,66.6,33.3,30.10,NW,308,6.4,6.4,29,0.00,CLR,SKC,0.00,WeatherDisplay:10.37,2013-10-12 20:27:00,
2013-10-12 15:32:00,66.3,33.1,30.10,WNW,298,10.6,10.6,29,0.00,CLR,SKC,0.00,WeatherDisplay:10.37,2013-10-12 20:32:00,
2013-10-12 15:37:00,66.4,33.2,30.10,NW,324,7.4,7.4,29,0.00,CLR,SKC,0.00,WeatherDisplay:10.37,2013-10-12 20:37:00,
2013-10-12 15:42:00,66.6,33.3,30.10,WNW,297,8.1,8.1,29,0.00,CLR,SKC,0.00,WeatherDisplay:10.37,2013-10-12 20:42:00,
2013-10-12 15:47:00,66.9,32.7,30.10,NW,311,7.4,7.4,28,0.00,CLR,SKC,0.00,WeatherDisplay:10.37,2013-10-12 20:47:00,
2013-10-12 15:52:00,66.7,32.5,30.10,WNW,303,8.1,8.1,28,0.00,CLR,SKC,0.00,WeatherDisplay:10.37,2013-10-12 20:52:00,
2013-10-12 15:58:00,66.7,32.5,30.10,WNW,301,13.8,13.8,28,0.00,CLR,SKC,0.00,WeatherDisplay:10.37,2013-10-12 20:58:00,
2013-10-12 16:03:00,66.8,31.7,30.10,NW,307,10.6,10.6,27,0.00,,SKC,0.00,WeatherDisplay:10.37,2013-10-12 21:03:00,
2013-10-12 16:08:00,66.8,33.5,30.10,NW,304,6.9,6.9,29,0.00,,SKC,0.00,WeatherDisplay:10.37,2013-10-12 21:08:00,
2013-10-12 16:13:00,66.9,31.8,30.10,NW,308,8.1,8.1,27,0.00,,SKC,0.00,WeatherDisplay:10.37,2013-10-12 21:13:00,
2013-10-12 16:18:00,66.9,32.7,30.11,WNW,296,11.7,11.7,28,0.00,,SKC,0.00,WeatherDisplay:10.37,2013-10-12 21:18:00,
2013-10-12 16:23:00,66.9,32.7,30.11,NW,314,6.9,6.9,28,0.00,,SKC,0.00,WeatherDisplay:10.37,2013-10-12 21:23:00,
2013-10-12 16:28:00,67.0,33.7,30.11,NW,316,10.6,10.6,29,0.00,,SKC,0.00,WeatherDisplay:10.37,2013-10-12 21:28:00,
2013-10-12 16:33:00,67.0,32.8,30.11,NW,316,6.4,6.4,28,0.00,,SKC,0.00,WeatherDisplay:10.37,2013-10-12 21:33:00,
2013-10-12 16:38:00,67.1,32.9,30.11,NW,306,7.4,7.4,28,0.00,,SKC,0.00,WeatherDisplay:10.37,2013-10-12 21:38:00,
2013-10-12 16:43:00,67.1,32.0,30.11,NW,309,8.5,8.5,27,0.00,,SKC,0.00,WeatherDisplay:10.37,2013-10-12 21:43:00,
2013-10-12 16:48:00,67.0,32.8,30.11,West,259,5.8,5.8,28,0.00,,SKC,0.00,WeatherDisplay:10.37,2013-10-12 21:48:00,
2013-10-12 16:53:00,67.0,32.8,30.11,WNW,290,6.9,6.9,28,0.00,,SKC,0.00,WeatherDisplay:10.37,2013-10-12 21:53:00,
2013-10-12 16:58:00,66.9,34.4,30.11,WNW,285,6.9,6.9,30,0.00,,SKC,0.00,WeatherDisplay:10.37,2013-10-12 21:58:00,
2013-10-12 17:03:00,67.0,31.9,30.11,West,270,7.4,7.4,27,0.00,,SKC,0.00,WeatherDisplay:10.37,2013-10-12 22:03:00,
2013-10-12 17:08:00,66.9,31.8,30.11,NW,310,4.6,4.6,27,0.00,,SKC,0.00,WeatherDisplay:10.37,2013-10-12 22:08:00,
2013-10-12 17:13:00,67.1,32.9,30.11,SW,217,6.9,6.9,28,0.00,,SKC,0.00,WeatherDisplay:10.37,2013-10-12 22:13:00,
2013-10-12 17:18:00,66.9,32.7,30.11,NW,304,5.8,5.8,28,0.00,,SKC,0.00,WeatherDisplay:10.37,2013-10-12 22:18:00,
2013-10-12 17:23:00,67.0,33.7,30.12,NNW,328,4.6,4.6,29,0.00,,SKC,0.00,WeatherDisplay:10.37,2013-10-12 22:23:00,
2013-10-12 17:28:00,66.8,34.3,30.12,WNW,302,4.6,4.6,30,0.00,,SKC,0.00,WeatherDisplay:10.37,2013-10-12 22:28:00,
2013-10-12 17:33:00,66.7,32.5,30.12,West,279,6.9,6.9,28,0.00,,SKC,0.00,WeatherDisplay:10.37,2013-10-12 22:33:00,
2013-10-12 17:38:00,66.6,33.3,30.12,WNW,282,2.3,2.3,29,0.00,,SKC,0.00,WeatherDisplay:10.37,2013-10-12 22:38:00,
2013-10-12 17:43:00,66.7,32.5,30.12,WSW,256,2.3,2.3,28,0.00,,SKC,0.00,WeatherDisplay:10.37,2013-10-12 22:43:00,
2013-10-12 17:48:00,66.7,33.4,30.12,WNW,290,3.5,3.5,29,0.00,,SKC,0.00,WeatherDisplay:10.37,2013-10-12 22:48:00,
2013-10-12 17:53:00,66.5,34.1,30.12,WNW,283,2.3,2.3,30,0.00,,SKC,0.00,WeatherDisplay:10.37,2013-10-12 22:53:00,
2013-10-12 17:58:00,66.2,33.8,30.12,WNW,290,3.5,3.5,30,0.00,,SKC,0.00,WeatherDisplay:10.37,2013-10-12 22:58:00,
2013-10-12 18:03:00,65.9,33.6,30.12,WNW,287,2.3,2.3,30,0.00,,SKC,0.00,WeatherDisplay:10.37,2013-10-12 23:03:00,
2013-10-12 18:08:00,65.8,33.5,30.12,WNW,284,4.6,4.6,30,0.00,,SKC,0.00,WeatherDisplay:10.37,2013-10-12 23:08:00,
2013-10-12 18:13:00,65.4,33.1,30.12,WNW,300,2.3,2.3,30,0.00,,SKC,0.00,WeatherDisplay:10.37,2013-10-12 23:13:00,
2013-10-12 18:18:00,65.2,33.8,30.12,NW,314,3.5,3.5,31,0.00,,SKC,0.00,WeatherDisplay:10.37,2013-10-12 23:18:00,
2013-10-12 18:23:00,64.6,33.3,30.12,NW,313,2.3,2.3,31,0.00,,SKC,0.00,WeatherDisplay:10.37,2013-10-12 23:23:00,
2013-10-12 18:28:00,63.9,33.4,30.12,WNW,298,1.2,1.2,32,0.00,,SKC,0.00,WeatherDisplay:10.37,2013-10-12 23:28:00,
2013-10-12 18:33:00,63.3,33.7,30.13,WNW,295,1.2,1.2,33,0.00,,SKC,0.00,WeatherDisplay:10.37,2013-10-12 23:33:00,
2013-10-12 18:38:00,62.8,34.0,30.13,NW,306,2.3,2.3,34,0.00,,SKC,0.00,WeatherDisplay:10.37,2013-10-12 23:38:00,
2013-10-12 18:44:00,62.2,33.5,30.13,NW,309,3.5,3.5,34,0.00,,SKC,0.00,WeatherDisplay:10.37,2013-10-12 23:44:00,
2013-10-12 18:49:00,61.5,33.6,30.13,NW,313,0.0,0.0,35,0.00,,SKC,0.00,WeatherDisplay:10.37,2013-10-12 23:49:00,
2013-10-12 18:54:00,60.5,35.4,30.13,NW,313,0.0,0.0,39,0.00,,SKC,0.00,WeatherDisplay:10.37,2013-10-12 23:54:00,
2013-10-12 18:59:00,59.4,35.7,30.13,NW,313,0.0,0.0,41,0.00,,SKC,0.00,WeatherDisplay:10.37,2013-10-12 23:59:00,
2013-10-12 19:04:00,57.8,34.8,30.13,NW,313,0.0,0.0,42,0.00,,SKC,0.00,WeatherDisplay:10.37,2013-10-13 00:04:00,
2013-10-12 19:09:00,56.5,34.8,30.13,NW,313,0.0,0.0,44,0.00,,SKC,0.00,WeatherDisplay:10.37,2013-10-13 00:09:00,
2013-10-12 19:14:00,55.0,34.6,30.14,NW,313,0.0,0.0,46,0.00,,SKC,0.00,WeatherDisplay:10.37,2013-10-13 00:14:00,
2013-10-12 19:19:00,54.0,34.7,30.14,NW,313,0.0,0.0,48,0.00,,SKC,0.00,WeatherDisplay:10.37,2013-10-13 00:19:00,
2013-10-12 19:24:00,53.3,35.1,30.14,NW,313,0.0,0.0,50,0.00,,SKC,0.00,WeatherDisplay:10.37,2013-10-13 00:24:00,
2013-10-12 19:29:00,52.6,35.0,30.14,NW,313,0.0,0.0,51,0.00,,SKC,0.00,WeatherDisplay:10.37,2013-10-13 00:29:00,
2013-10-12 19:34:00,52.1,34.5,30.14,NW,313,0.0,0.0,51,0.00,,SKC,0.00,WeatherDisplay:10.37,2013-10-13 00:34:00,
2013-10-12 19:39:00,52.2,35.1,30.14,NW,313,0.0,0.0,52,0.00,,SKC,0.00,WeatherDisplay:10.37,2013-10-13 00:39:00,
2013-10-12 19:44:00,52.0,33.9,30.14,NW,313,0.0,0.0,50,0.00,,SKC,0.00,WeatherDisplay:10.37,2013-10-13 00:44:00,
2013-10-12 19:49:00,51.7,34.6,30.15,NW,313,0.0,0.0,52,0.00,,SKC,0.00,WeatherDisplay:10.37,2013-10-13 00:49:00,
2013-10-12 19:54:00,51.4,34.3,30.15,NW,313,0.0,0.0,52,0.00,,SKC,0.00,WeatherDisplay:10.37,2013-10-13 00:54:00,
2013-10-12 19:59:00,50.9,34.8,30.15,NW,313,0.0,0.0,54,0.00,,SKC,0.00,WeatherDisplay:10.37,2013-10-13 00:59:00,
2013-10-12 20:04:00,50.3,34.7,30.15,NW,313,0.0,0.0,55,0.00,,SKC,0.00,WeatherDisplay:10.37,2013-10-13 01:04:00,
2013-10-12 20:09:00,49.3,34.7,30.15,NW,313,0.0,0.0,57,0.00,,SKC,0.00,WeatherDisplay:10.37,2013-10-13 01:09:00,
2013-10-12 20:14:00,48.7,35.4,30.16,NW,313,0.0,0.0,60,0.00,,SKC,0.00,WeatherDisplay:10.37,2013-10-13 01:14:00,
2013-10-12 20:19:00,48.5,35.7,30.16,NW,313,0.0,0.0,61,0.00,,SKC,0.00,WeatherDisplay:10.37,2013-10-13 01:19:00,
2013-10-12 20:24:00,48.4,36.0,30.16,NW,313,0.0,0.0,62,0.00,,SKC,0.00,WeatherDisplay:10.37,2013-10-13 01:24:00,
2013-10-12 20:29:00,48.4,35.6,30.16,NW,313,0.0,0.0,61,0.00,,SKC,0.00,WeatherDisplay:10.37,2013-10-13 01:29:00,
2013-10-12 20:34:00,48.4,35.6,30.16,NW,313,0.0,0.0,61,0.00,,SKC,0.00,WeatherDisplay:10.37,2013-10-13 01:34:00,
2013-10-12 20:39:00,48.5,35.7,30.17,NW,313,0.0,0.0,61,0.00,,SKC,0.00,WeatherDisplay:10.37,2013-10-13 01:39:00,
2013-10-12 20:44:00,48.3,34.6,30.17,NW,313,0.0,0.0,59,0.00,,SKC,0.00,WeatherDisplay:10.37,2013-10-13 01:44:00,
2013-10-12 20:49:00,48.0,35.2,30.17,NW,313,0.0,0.0,61,0.00,,SKC,0.00,WeatherDisplay:10.37,2013-10-13 01:49:00,
2013-10-12 20:54:00,47.4,35.0,30.17,NW,313,0.0,0.0,62,0.00,,SKC,0.00,WeatherDisplay:10.37,2013-10-13 01:54:00,
2013-10-12 20:57:00,47.1,35.1,30.17,NW,313,0.0,0.0,63,0.00,,SKC,0.00,WeatherDisplay:10.37,2013-10-13 01:57:00,
2013-10-12 21:02:00,46.9,35.0,30.17,NW,313,0.0,0.0,63,0.00,CLR,SKC,0.00,WeatherDisplay:10.37,2013-10-13 02:02:00,
2013-10-12 21:07:00,46.5,35.4,30.17,NW,313,0.0,0.0,65,0.00,CLR,SKC,0.00,WeatherDisplay:10.37,2013-10-13 02:07:00,
2013-10-12 21:12:00,46.1,35.4,30.17,NW,313,0.0,0.0,66,0.00,CLR,SKC,0.00,WeatherDisplay:10.37,2013-10-13 02:12:00,
2013-10-12 21:17:00,46.5,35.0,30.18,NNW,348,1.1,0.0,64,0.00,CLR,SKC,0.00,WeatherDisplay:10.37,2013-10-13 02:17:00,
2013-10-12 21:22:00,47.8,35.0,30.18,NE,37,1.2,0.0,61,0.00,CLR,SKC,0.00,WeatherDisplay:10.37,2013-10-13 02:22:00,
2013-10-12 21:27:00,47.7,35.3,30.18,NE,37,0.0,0.0,62,0.00,CLR,SKC,0.00,WeatherDisplay:10.37,2013-10-13 02:27:00,
2013-10-12 21:32:00,46.9,35.0,30.19,NE,37,0.0,0.0,63,0.00,CLR,SKC,0.00,WeatherDisplay:10.37,2013-10-13 02:32:00,
2013-10-12 21:37:00,46.1,35.0,30.19,NE,37,0.0,0.0,65,0.00,CLR,SKC,0.00,WeatherDisplay:10.37,2013-10-13 02:37:00,
2013-10-12 21:42:00,45.4,35.5,30.19,NE,37,0.0,0.0,68,0.00,CLR,SKC,0.00,WeatherDisplay:10.37,2013-10-13 02:42:00,
2013-10-12 21:47:00,45.0,35.4,30.19,NE,37,0.0,0.0,69,0.00,CLR,SKC,0.00,WeatherDisplay:10.37,2013-10-13 02:47:00,
2013-10-12 21:52:00,44.3,35.1,30.19,NE,37,0.0,0.0,70,0.00,CLR,SKC,0.00,WeatherDisplay:10.37,2013-10-13 02:52:00,
2013-10-12 21:57:00,43.8,35.0,30.20,NE,37,0.0,0.0,71,0.00,CLR,SKC,0.00,WeatherDisplay:10.37,2013-10-13 02:57:00,
2013-10-12 22:02:00,43.5,35.4,30.20,NE,37,0.0,0.0,73,0.00,CLR,SKC,0.00,WeatherDisplay:10.37,2013-10-13 03:02:00,
2013-10-12 22:07:00,43.6,35.9,30.20,NE,37,0.0,0.0,74,0.00,CLR,SKC,0.00,WeatherDisplay:10.37,2013-10-13 03:07:00,
2013-10-12 22:12:00,43.5,36.1,30.20,NE,37,0.0,0.0,75,0.00,CLR,SKC,0.00,WeatherDisplay:10.37,2013-10-13 03:12:00,
2013-10-12 22:17:00,43.1,36.0,30.20,NE,37,0.0,0.0,76,0.00,CLR,SKC,0.00,WeatherDisplay:10.37,2013-10-13 03:17:00,
2013-10-12 22:22:00,42.6,35.6,30.21,NE,37,0.0,0.0,76,0.00,CLR,SKC,0.00,WeatherDisplay:10.37,2013-10-13 03:22:00,
2013-10-12 22:27:00,41.9,35.5,30.21,NE,37,0.0,0.0,78,0.00,CLR,SKC,0.00,WeatherDisplay:10.37,2013-10-13 03:27:00,
2013-10-12 22:32:00,41.5,35.5,30.21,NE,37,0.0,0.0,79,0.00,CLR,SKC,0.00,WeatherDisplay:10.37,2013-10-13 03:32:00,
2013-10-12 22:37:00,41.1,34.8,30.22,NE,37,0.0,0.0,78,0.00,CLR,SKC,0.00,WeatherDisplay:10.37,2013-10-13 03:37:00,
2013-10-12 22:42:00,40.7,35.0,30.22,NE,37,0.0,0.0,80,0.00,CLR,SKC,0.00,WeatherDisplay:10.37,2013-10-13 03:42:00,
2013-10-12 22:47:00,40.6,35.2,30.22,NE,37,0.0,0.0,81,0.00,CLR,SKC,0.00,WeatherDisplay:10.37,2013-10-13 03:47:00,
2013-10-12 22:52:00,41.1,35.4,30.22,NE,37,0.0,0.0,80,0.00,CLR,SKC,0.00,WeatherDisplay:10.37,2013-10-13 03:52:00,
2013-10-12 22:57:00,41.2,35.5,30.22,NE,37,0.0,0.0,80,0.00,CLR,SKC,0.00,WeatherDisplay:10.37,2013-10-13 03:57:00,
2013-10-12 23:01:00,41.1,35.4,30.22,NE,37,0.0,0.0,80,0.00,CLR,SKC,0.00,WeatherDisplay:10.37,2013-10-13 04:01:00,
2013-10-12 23:02:00,41.1,35.1,30.22,NE,37,0.0,0.0,79,0.00,CLR,SKC,0.00,WeatherDisplay:10.37,2013-10-13 04:02:00,
2013-10-12 23:07:00,40.7,35.3,30.23,NE,37,0.0,0.0,81,0.00,CLR,SKC,0.00,WeatherDisplay:10.37,2013-10-13 04:07:00,
2013-10-12 23:12:00,40.8,35.1,30.23,NE,37,0.0,0.0,80,0.00,CLR,SKC,0.00,WeatherDisplay:10.37,2013-10-13 04:12:00,
2013-10-12 23:17:00,40.9,35.2,30.23,NE,37,0.0,0.0,80,0.00,CLR,SKC,0.00,WeatherDisplay:10.37,2013-10-13 04:17:00,
2013-10-12 23:22:00,41.1,34.8,30.23,NE,37,0.0,0.0,78,0.00,CLR,SKC,0.00,WeatherDisplay:10.37,2013-10-13 04:22:00,
2013-10-12 23:27:00,40.8,34.8,30.24,NE,37,0.0,0.0,79,0.00,CLR,SKC,0.00,WeatherDisplay:10.37,2013-10-13 04:27:00,
2013-10-12 23:32:00,40.5,34.8,30.24,NE,37,0.0,0.0,80,0.00,CLR,SKC,0.00,WeatherDisplay:10.37,2013-10-13 04:32:00,
2013-10-12 23:37:00,40.1,34.4,30.24,NE,37,0.0,0.0,80,0.00,CLR,SKC,0.00,WeatherDisplay:10.37,2013-10-13 04:37:00,
2013-10-12 23:42:00,39.6,34.2,30.24,NE,37,0.0,0.0,81,0.00,CLR,SKC,0.00,WeatherDisplay:10.37,2013-10-13 04:42:00,
2013-10-12 23:47:00,39.6,34.9,30.25,NE,37,0.0,0.0,83,0.00,CLR,SKC,0.00,WeatherDisplay:10.37,2013-10-13 04:47:00,
2013-10-12 23:53:00,40.1,35.0,30.25,NE,37,0.0,0.0,82,0.00,CLR,SKC,0.00,WeatherDisplay:10.37,2013-10-13 04:53:00,
2013-10-12 23:58:00,40.4,35.0,30.25,NE,37,0.0,0.0,81,0.00,CLR,SKC,0.00,WeatherDisplay:10.37,2013-10-13 04:58:00,